Time;durP1;ratioP1;P1;durP2;ratioP2;P2;SDS_P1;SDS_P2;PMS_P1;PMS_P2;Temp;Humidity;BMP_temperature;BMP_pressure;BME280_temperature;BME280_humidity;BME280_pressure;Samples;Min_cycle;Max_cycle;Signal;HPM_P1;HPM_P2
2021/12/09 00:01:24;;;;;;;26.08;15.52;;;1.40;99.90;;;;;;4995309;28;20053;-69
2021/12/09 00:04:02;;;;;;;26.90;14.90;;;1.50;99.90;;;;;;5005754;28;20649;-71
2021/12/09 00:06:31;;;;;;;22.02;13.55;;;1.40;99.90;;;;;;5022943;28;20208;-70
2021/12/09 00:09:05;;;;;;;24.40;15.07;;;1.50;99.90;;;;;;5034159;28;20147;-70
2021/12/09 00:11:41;;;;;;;26.27;14.65;;;1.50;99.90;;;;;;5023668;28;20580;-70
2021/12/09 00:14:29;;;;;;;23.38;13.95;;;1.50;99.90;;;;;;5005851;28;20482;-70
2021/12/09 00:17:01;;;;;;;27.38;14.75;;;1.50;99.90;;;;;;5005741;28;20049;-70
2021/12/09 00:19:28;;;;;;;23.35;14.45;;;1.50;99.90;;;;;;5013892;28;20064;-70
2021/12/09 00:21:58;;;;;;;26.58;15.25;;;1.50;99.90;;;;;;5022776;28;20772;-70
2021/12/09 00:24:26;;;;;;;27.73;16.25;;;1.40;99.90;;;;;;5026751;28;20036;-71
2021/12/09 00:26:54;;;;;;;25.67;15.27;;;1.50;99.90;;;;;;5025495;28;20077;-70
2021/12/09 00:29:21;;;;;;;24.20;14.93;;;1.50;99.90;;;;;;5025555;28;20037;-70
2021/12/09 00:31:51;;;;;;;25.95;14.40;;;1.50;99.90;;;;;;5029683;28;20046;-70
2021/12/09 00:34:27;;;;;;;24.70;15.10;;;1.50;99.90;;;;;;5007102;28;20045;-70
2021/12/09 00:36:59;;;;;;;25.60;15.27;;;1.50;99.90;;;;;;4998388;28;20505;-70
2021/12/09 00:39:26;;;;;;;27.00;15.27;;;1.40;99.90;;;;;;5021434;28;20037;-70
2021/12/09 00:41:53;;;;;;;31.00;17.17;;;1.30;99.90;;;;;;5008017;28;20053;-70
2021/12/09 00:44:21;;;;;;;31.40;17.77;;;1.30;99.90;;;;;;5020030;28;20042;-71
2021/12/09 00:46:48;;;;;;;32.83;17.63;;;1.30;99.90;;;;;;5026275;28;20764;-70
2021/12/09 00:49:15;;;;;;;30.00;17.48;;;1.20;99.90;;;;;;5027292;28;20045;-70
2021/12/09 00:51:43;;;;;;;31.58;17.95;;;1.20;99.90;;;;;;5025424;28;20111;-70
2021/12/09 00:54:10;;;;;;;34.17;18.40;;;1.20;99.90;;;;;;5024420;28;20073;-70
2021/12/09 00:56:38;;;;;;;34.03;18.38;;;1.10;99.90;;;;;;5037930;28;20048;-70
2021/12/09 00:59:05;;;;;;;33.28;17.65;;;1.10;99.90;;;;;;5027743;28;20045;-71
2021/12/09 01:01:32;;;;;;;37.03;18.85;;;1.10;99.90;;;;;;5017623;28;20103;-71
2021/12/09 01:04:00;;;;;;;32.60;16.90;;;1.10;99.90;;;;;;5034685;28;20114;-70
2021/12/09 01:06:27;;;;;;;34.25;18.52;;;1.10;99.90;;;;;;5019195;28;20053;-69
2021/12/09 01:08:54;;;;;;;35.13;20.02;;;1.10;99.90;;;;;;5046694;28;20373;-69
2021/12/09 01:11:22;;;;;;;34.70;17.92;;;1.20;99.90;;;;;;5030949;28;20052;-70
2021/12/09 01:13:49;;;;;;;34.47;18.42;;;1.20;99.90;;;;;;5034461;28;20049;-70
2021/12/09 01:16:16;;;;;;;31.63;17.25;;;1.20;99.90;;;;;;5048432;28;20041;-68
2021/12/09 01:18:44;;;;;;;35.47;18.27;;;1.20;99.90;;;;;;5015444;28;20045;-69
2021/12/09 01:21:11;;;;;;;34.60;17.92;;;1.20;99.90;;;;;;5035872;28;20037;-69
2021/12/09 01:23:40;;;;;;;34.67;18.42;;;1.20;99.90;;;;;;5035146;28;20053;-69
2021/12/09 01:26:08;;;;;;;34.38;17.30;;;1.20;99.90;;;;;;5020615;28;20388;-69
2021/12/09 01:28:59;;;;;;;31.77;17.67;;;1.20;99.90;;;;;;5030449;28;20049;-69
2021/12/09 01:31:32;;;;;;;33.85;17.85;;;1.20;99.90;;;;;;5016616;28;20064;-69
2021/12/09 01:34:02;;;;;;;31.35;17.30;;;1.20;99.90;;;;;;5025194;28;20060;-70
2021/12/09 01:36:31;;;;;;;33.63;18.33;;;1.10;99.90;;;;;;5048285;28;20044;-69
2021/12/09 01:38:59;;;;;;;35.53;18.42;;;1.10;99.90;;;;;;5022152;28;20046;-70
2021/12/09 01:41:27;;;;;;;30.35;16.80;;;1.20;99.90;;;;;;5010939;28;20405;-69
2021/12/09 01:43:54;;;;;;;30.02;16.80;;;1.20;99.90;;;;;;5040606;28;20049;-69
2021/12/09 01:46:22;;;;;;;29.35;16.50;;;1.20;99.90;;;;;;5033912;28;20048;-69
2021/12/09 01:48:52;;;;;;;33.10;18.42;;;1.20;99.90;;;;;;5014827;28;20045;-70
2021/12/09 01:51:19;;;;;;;28.55;15.90;;;1.20;99.90;;;;;;5015625;28;20044;-70
2021/12/09 01:53:48;;;;;;;30.40;17.15;;;1.20;99.90;;;;;;5033141;28;20084;-70
2021/12/09 01:56:21;;;;;;;26.27;15.90;;;1.30;99.90;;;;;;5031809;28;20049;-70
2021/12/09 01:58:54;;;;;;;31.45;17.27;;;1.30;99.90;;;;;;5027143;28;20049;-70
2021/12/09 02:01:24;;;;;;;29.48;16.52;;;1.30;99.90;;;;;;5004806;28;20504;-69
2021/12/09 02:03:52;;;;;;;31.70;17.00;;;1.30;99.90;;;;;;5028267;28;20042;-70
2021/12/09 02:06:22;;;;;;;28.77;16.73;;;1.40;99.90;;;;;;5021700;28;20052;-69
2021/12/09 02:08:50;;;;;;;27.70;15.40;;;1.40;99.90;;;;;;5033284;28;20060;-70
2021/12/09 02:11:17;;;;;;;30.05;17.50;;;1.40;99.90;;;;;;5021485;28;20054;-69
2021/12/09 02:13:45;;;;;;;30.67;17.48;;;1.40;99.90;;;;;;5032121;28;20751;-70
2021/12/09 02:16:14;;;;;;;30.98;17.40;;;1.40;99.90;;;;;;5039618;28;20107;-70
2021/12/09 02:18:41;;;;;;;29.88;16.88;;;1.40;99.90;;;;;;5020663;28;20057;-70
2021/12/09 02:21:18;;;;;;;27.33;16.63;;;1.40;99.90;;;;;;5032471;28;20547;-70
2021/12/09 02:23:48;;;;;;;28.42;16.27;;;1.40;99.90;;;;;;5032598;28;20133;-70
2021/12/09 02:26:17;;;;;;;29.30;16.27;;;1.40;99.90;;;;;;5020898;28;20136;-69
2021/12/09 02:28:45;;;;;;;33.28;17.73;;;1.40;99.90;;;;;;5042712;28;20474;-70
2021/12/09 02:31:12;;;;;;;31.02;17.05;;;1.40;99.90;;;;;;5050419;28;20060;-69
2021/12/09 02:33:40;;;;;;;32.25;17.42;;;1.40;99.90;;;;;;5048260;28;20053;-69
2021/12/09 02:36:07;;;;;;;30.27;17.23;;;1.40;99.90;;;;;;5018127;28;20049;-70
2021/12/09 02:38:42;;;;;;;30.95;17.08;;;1.40;99.90;;;;;;5032807;28;20633;-70
2021/12/09 02:41:18;;;;;;;32.63;18.17;;;1.40;99.90;;;;;;5039842;28;20043;-70
2021/12/09 02:43:49;;;;;;;33.85;18.13;;;1.40;99.90;;;;;;5051074;28;20076;-69
2021/12/09 02:46:18;;;;;;;32.03;18.55;;;1.40;99.90;;;;;;5050648;28;20593;-69
2021/12/09 02:48:45;;;;;;;33.53;18.13;;;1.40;99.90;;;;;;5023148;28;20073;-70
2021/12/09 02:51:14;;;;;;;31.08;17.33;;;1.40;99.90;;;;;;5027834;28;20424;-69
2021/12/09 02:53:41;;;;;;;33.67;18.95;;;1.40;99.90;;;;;;5034309;28;20049;-70
2021/12/09 02:56:10;;;;;;;33.45;17.85;;;1.40;99.90;;;;;;5012426;28;20131;-69
2021/12/09 02:58:39;;;;;;;32.70;18.33;;;1.30;99.90;;;;;;5021277;28;20045;-69
2021/12/09 03:01:22;;;;;;;36.33;18.55;;;1.30;99.90;;;;;;5030862;28;20064;-69
2021/12/09 03:03:56;;;;;;;33.92;18.50;;;1.30;99.90;;;;;;5012204;28;20095;-70
2021/12/09 03:06:39;;;;;;;32.38;18.05;;;1.30;99.90;;;;;;5022739;28;20515;-70
2021/12/09 03:09:14;;;;;;;31.77;17.75;;;1.30;99.90;;;;;;5037311;28;20136;-69
2021/12/09 03:11:45;;;;;;;32.92;18.67;;;1.30;99.90;;;;;;5017794;28;20045;-70
2021/12/09 03:14:12;;;;;;;30.30;17.13;;;1.30;99.90;;;;;;5023976;28;20136;-70
2021/12/09 03:16:40;;;;;;;30.73;18.25;;;1.30;99.90;;;;;;4996599;28;20258;-70
2021/12/09 03:19:09;;;;;;;34.63;18.05;;;1.30;99.90;;;;;;5020399;28;20095;-69
2021/12/09 03:21:43;;;;;;;30.55;18.15;;;1.30;99.90;;;;;;5033719;28;20440;-70
2021/12/09 03:24:17;;;;;;;30.63;17.10;;;1.30;99.90;;;;;;5038622;28;20045;-70
2021/12/09 03:26:56;;;;;;;29.65;16.98;;;1.20;99.90;;;;;;5024785;28;20476;-69
2021/12/09 03:29:26;;;;;;;36.95;18.55;;;1.20;99.90;;;;;;5038395;28;20099;-70
2021/12/09 03:31:57;;;;;;;32.67;17.25;;;1.30;99.90;;;;;;5028969;28;20432;-70
2021/12/09 03:34:28;;;;;;;26.67;13.38;;;1.30;99.90;;;;;;5034398;28;20037;-69
2021/12/09 03:36:58;;;;;;;30.08;17.00;;;1.30;99.90;;;;;;5027006;28;20153;-69
2021/12/09 03:39:30;;;;;;;31.27;17.60;;;1.30;99.90;;;;;;5013988;28;20048;-69
2021/12/09 03:41:57;;;;;;;30.13;17.77;;;1.30;99.90;;;;;;5030843;28;20049;-69
2021/12/09 03:44:28;;;;;;;33.97;19.08;;;1.30;99.90;;;;;;5032522;28;20414;-69
2021/12/09 03:46:58;;;;;;;27.35;16.75;;;1.30;99.90;;;;;;5031661;28;20064;-70
2021/12/09 03:49:25;;;;;;;35.17;18.50;;;1.30;99.90;;;;;;5005607;28;20084;-69
2021/12/09 03:51:54;;;;;;;31.98;18.17;;;1.30;99.90;;;;;;5041440;28;20428;-70
2021/12/09 03:54:21;;;;;;;33.40;18.33;;;1.30;99.90;;;;;;5030884;28;20111;-69
2021/12/09 03:56:48;;;;;;;34.90;19.83;;;1.30;99.90;;;;;;5030102;28;20518;-69
2021/12/09 03:59:16;;;;;;;35.38;18.85;;;1.30;99.90;;;;;;5018549;28;20575;-69
2021/12/09 04:01:45;;;;;;;33.13;18.48;;;1.30;99.90;;;;;;5036677;28;20045;-69
2021/12/09 04:04:15;;;;;;;36.20;19.02;;;1.20;99.90;;;;;;5036971;28;20041;-69
2021/12/09 04:06:45;;;;;;;34.00;18.55;;;1.20;99.90;;;;;;5036399;28;20044;-69
2021/12/09 04:09:14;;;;;;;37.33;20.33;;;1.20;99.90;;;;;;5041926;28;20045;-69
2021/12/09 04:11:42;;;;;;;39.03;20.17;;;1.20;99.90;;;;;;5035518;28;20052;-69
2021/12/09 04:14:09;;;;;;;35.47;19.63;;;1.20;99.90;;;;;;5018009;28;20038;-69
2021/12/09 04:16:38;;;;;;;34.25;19.13;;;1.30;99.90;;;;;;5030927;28;20049;-70
2021/12/09 04:19:07;;;;;;;36.13;20.25;;;1.30;99.90;;;;;;5032320;28;20041;-69
2021/12/09 04:21:35;;;;;;;36.65;19.23;;;1.30;99.90;;;;;;5017752;28;20102;-70
2021/12/09 04:24:09;;;;;;;33.47;19.08;;;1.30;99.90;;;;;;5039350;28;20519;-70
2021/12/09 04:26:43;;;;;;;32.80;18.45;;;1.20;99.90;;;;;;5026926;28;20737;-69
2021/12/09 04:29:12;;;;;;;32.80;17.83;;;1.30;99.90;;;;;;5040951;28;20049;-70
2021/12/09 04:31:40;;;;;;;33.72;18.00;;;1.30;99.90;;;;;;5030611;28;20052;-69
2021/12/09 04:34:09;;;;;;;33.78;18.17;;;1.30;99.90;;;;;;5041518;28;20049;-69
2021/12/09 04:36:40;;;;;;;34.58;18.42;;;1.30;99.90;;;;;;5046490;28;20071;-69
2021/12/09 04:39:07;;;;;;;36.85;19.95;;;1.30;99.90;;;;;;5030333;28;20053;-70
2021/12/09 04:41:35;;;;;;;34.72;18.42;;;1.40;99.90;;;;;;5045310;28;20159;-69
2021/12/09 04:44:04;;;;;;;34.83;18.65;;;1.40;99.90;;;;;;5048299;28;20037;-71
2021/12/09 04:46:31;;;;;;;33.53;18.92;;;1.40;99.90;;;;;;5014521;28;20068;-70
2021/12/09 04:48:59;;;;;;;36.47;18.63;;;1.30;99.90;;;;;;5046632;28;20163;-70
2021/12/09 04:51:27;;;;;;;31.85;17.08;;;1.30;99.90;;;;;;5030529;28;20041;-69
2021/12/09 04:53:55;;;;;;;32.40;18.27;;;1.30;99.90;;;;;;5041685;28;20511;-69
2021/12/09 04:56:22;;;;;;;33.28;18.05;;;1.30;99.90;;;;;;5028621;28;20041;-69
2021/12/09 04:58:50;;;;;;;35.97;19.25;;;1.30;99.90;;;;;;5038476;28;20046;-69
2021/12/09 05:01:18;;;;;;;35.13;19.00;;;1.40;99.90;;;;;;5010670;28;20045;-69
2021/12/09 05:03:48;;;;;;;34.13;18.95;;;1.30;99.90;;;;;;5021859;28;20049;-70
2021/12/09 05:06:16;;;;;;;34.92;18.13;;;1.40;99.90;;;;;;5011536;28;20056;-70
2021/12/09 05:08:48;;;;;;;32.88;18.48;;;1.40;99.90;;;;;;5028113;28;20447;-70
2021/12/09 05:11:33;;;;;;;33.33;17.02;;;1.30;99.90;;;;;;5029190;28;20412;-69
2021/12/09 05:14:01;;;;;;;32.42;17.50;;;1.40;99.90;;;;;;4995099;28;20392;-69
2021/12/09 05:16:28;;;;;;;32.00;17.75;;;1.40;99.90;;;;;;5028781;28;20046;-70
2021/12/09 05:19:00;;;;;;;33.55;18.67;;;1.40;99.90;;;;;;5028032;28;20052;-70
2021/12/09 05:21:37;;;;;;;34.58;18.58;;;1.40;99.90;;;;;;5031884;28;20046;-69
2021/12/09 05:24:06;;;;;;;34.05;18.65;;;1.40;99.90;;;;;;5014887;28;20140;-69
2021/12/09 05:26:41;;;;;;;32.97;17.77;;;1.40;99.90;;;;;;5033264;28;20052;-69
2021/12/09 05:29:08;;;;;;;35.90;19.92;;;1.40;99.90;;;;;;5015069;28;20053;-69
2021/12/09 05:34:22;;;;;;;35.42;19.25;;;1.40;99.90;;;;;;5012581;28;20061;-70
2021/12/09 05:36:49;;;;;;;35.92;18.10;;;1.40;99.90;;;;;;5012002;28;20049;-70
2021/12/09 05:39:17;;;;;;;31.13;17.50;;;1.40;99.90;;;;;;5031939;28;20124;-70
2021/12/09 05:41:46;;;;;;;29.50;16.50;;;1.40;99.90;;;;;;5030843;28;20396;-70
2021/12/09 05:44:14;;;;;;;32.20;17.65;;;1.40;99.90;;;;;;5015921;28;20517;-70
2021/12/09 05:46:45;;;;;;;30.30;16.85;;;1.40;99.90;;;;;;5033028;28;20044;-70
2021/12/09 05:49:14;;;;;;;33.15;17.40;;;1.40;99.90;;;;;;5027754;28;20052;-70
2021/12/09 05:51:44;;;;;;;35.17;19.13;;;1.40;99.90;;;;;;5021426;28;20051;-70
2021/12/09 05:54:12;;;;;;;32.05;17.10;;;1.40;99.90;;;;;;5010694;28;20129;-69
2021/12/09 05:56:39;;;;;;;32.45;18.17;;;1.40;99.90;;;;;;5004958;28;20061;-70
2021/12/09 05:59:09;;;;;;;33.63;17.20;;;1.40;99.90;;;;;;5039992;28;20041;-69
2021/12/09 06:01:39;;;;;;;31.92;16.35;;;1.30;99.90;;;;;;5014269;28;20124;-69
2021/12/09 06:04:07;;;;;;;32.80;17.45;;;1.30;99.90;;;;;;5025229;28;20048;-69
2021/12/09 06:06:36;;;;;;;30.40;15.02;;;1.30;99.90;;;;;;5025399;28;20117;-69
2021/12/09 06:09:06;;;;;;;33.63;17.15;;;1.30;99.90;;;;;;5036125;28;20037;-69
2021/12/09 06:11:35;;;;;;;29.77;16.13;;;1.30;99.90;;;;;;5051136;28;20098;-69
2021/12/09 06:14:04;;;;;;;33.95;16.60;;;1.30;99.90;;;;;;5041281;28;20044;-69
2021/12/09 06:16:31;;;;;;;29.38;16.02;;;1.30;99.90;;;;;;5048518;28;20091;-68
2021/12/09 06:19:00;;;;;;;30.52;16.80;;;1.30;99.90;;;;;;5014915;28;20045;-68
2021/12/09 06:21:28;;;;;;;32.22;17.33;;;1.20;99.90;;;;;;5024567;28;20049;-69
2021/12/09 06:23:57;;;;;;;31.75;16.50;;;1.20;99.90;;;;;;5045751;28;20045;-68
2021/12/09 06:26:25;;;;;;;32.22;18.02;;;1.20;99.90;;;;;;5014345;28;20507;-68
2021/12/09 06:28:53;;;;;;;37.75;18.48;;;1.20;99.90;;;;;;5011192;28;20072;-68
2021/12/09 06:31:21;;;;;;;32.75;16.90;;;1.20;99.90;;;;;;5013300;28;20044;-68
2021/12/09 06:33:49;;;;;;;41.53;19.23;;;1.20;99.90;;;;;;5031449;28;20111;-68
2021/12/09 06:36:17;;;;;;;35.63;17.80;;;1.20;99.90;;;;;;5000645;28;20500;-70
2021/12/09 06:38:45;;;;;;;40.03;18.80;;;1.20;99.90;;;;;;5020548;28;20053;-69
2021/12/09 06:41:12;;;;;;;35.60;18.65;;;1.20;99.90;;;;;;5022342;28;20535;-69
2021/12/09 06:43:40;;;;;;;33.63;17.08;;;1.20;99.90;;;;;;5019687;28;20034;-69
2021/12/09 06:46:10;;;;;;;31.05;16.55;;;1.30;99.90;;;;;;5029097;28;20060;-69
2021/12/09 06:48:38;;;;;;;32.35;16.17;;;1.30;99.90;;;;;;5015511;28;20049;-69
2021/12/09 06:51:07;;;;;;;33.00;16.20;;;1.20;99.90;;;;;;5036072;28;20512;-69
2021/12/09 06:53:36;;;;;;;28.88;15.02;;;1.30;99.90;;;;;;5022548;28;20396;-69
2021/12/09 06:56:04;;;;;;;33.40;16.02;;;1.30;99.90;;;;;;5027924;28;20057;-69
2021/12/09 06:58:32;;;;;;;34.10;17.02;;;1.30;99.90;;;;;;5040296;28;20061;-69
2021/12/09 07:01:01;;;;;;;33.42;16.20;;;1.40;99.90;;;;;;5030019;28;20048;-69
2021/12/09 07:03:29;;;;;;;29.13;15.80;;;1.50;99.90;;;;;;5027501;28;20049;-69
2021/12/09 07:06:01;;;;;;;33.78;16.58;;;1.50;99.90;;;;;;5037101;28;20427;-69
2021/12/09 07:08:28;;;;;;;;;;;1.60;99.90;;;;;;5033591;28;20045;-69
2021/12/09 07:10:56;;;;;;;28.15;15.85;;;1.60;99.90;;;;;;5045418;28;19931;-69
2021/12/09 07:13:23;;;;;;;32.15;16.85;;;1.60;99.90;;;;;;5039270;28;20167;-69
2021/12/09 07:15:50;;;;;;;29.38;15.00;;;1.70;99.90;;;;;;5047048;28;20522;-69
2021/12/09 07:18:22;;;;;;;32.33;17.00;;;1.70;99.90;;;;;;5047453;28;20079;-69
2021/12/09 07:20:49;;;;;;;37.88;18.08;;;1.70;99.90;;;;;;5024491;28;20068;-69
2021/12/09 07:23:17;;;;;;;28.67;15.07;;;1.70;99.90;;;;;;5047650;28;20052;-69
2021/12/09 07:25:44;;;;;;;34.20;17.45;;;1.70;99.90;;;;;;5042256;28;20045;-69
2021/12/09 07:28:11;;;;;;;29.98;16.00;;;1.70;99.90;;;;;;5029352;28;20048;-70
2021/12/09 07:30:39;;;;;;;29.92;15.50;;;1.80;99.90;;;;;;5030496;28;20037;-69
2021/12/09 07:33:07;;;;;;;29.08;15.23;;;1.80;99.90;;;;;;5039518;28;20045;-70
2021/12/09 07:35:35;;;;;;;30.38;15.90;;;1.80;99.90;;;;;;5041341;28;20464;-70
2021/12/09 07:38:04;;;;;;;30.70;16.13;;;1.90;99.90;;;;;;5004976;28;20049;-69
2021/12/09 07:40:32;;;;;;;29.17;14.88;;;1.90;99.90;;;;;;5044267;28;20407;-70
2021/12/09 07:43:00;;;;;;;30.13;15.15;;;1.90;99.90;;;;;;5038682;28;20469;-70
2021/12/09 07:45:28;;;;;;;28.67;14.88;;;1.90;99.90;;;;;;5029126;28;20118;-70
2021/12/09 07:47:56;;;;;;;29.40;14.18;;;1.90;99.90;;;;;;5026953;28;20045;-69
2021/12/09 07:50:28;;;;;;;25.70;13.88;;;2.00;99.90;;;;;;5028872;28;20053;-69
2021/12/09 07:52:56;;;;;;;28.60;14.35;;;2.00;99.90;;;;;;5041729;28;20496;-70
2021/12/09 07:55:24;;;;;;;29.05;14.27;;;2.00;99.90;;;;;;5003544;28;20037;-69
2021/12/09 07:57:52;;;;;;;30.98;15.27;;;2.10;99.90;;;;;;5031356;28;20049;-69
2021/12/09 08:00:28;;;;;;;26.98;14.23;;;2.10;99.90;;;;;;5031593;28;20053;-69
2021/12/09 08:02:57;;;;;;;29.67;15.18;;;2.10;99.90;;;;;;5029167;28;20045;-69
2021/12/09 08:05:27;;;;;;;32.53;15.70;;;2.20;99.90;;;;;;5028423;28;20045;-70
2021/12/09 08:07:54;;;;;;;29.48;14.68;;;2.20;99.90;;;;;;5049108;28;20063;-70
2021/12/09 08:10:22;;;;;;;32.00;15.45;;;2.10;99.90;;;;;;5041518;28;20068;-70
2021/12/09 08:12:51;;;;;;;37.75;17.98;;;2.10;99.90;;;;;;5046710;28;20132;-69
2021/12/09 08:15:35;;;;;;;32.42;15.50;;;2.10;99.90;;;;;;5043076;28;20049;-69
2021/12/09 08:20:41;;;;;;;30.77;16.13;;;2.10;99.90;;;;;;5014953;28;20080;-70
2021/12/09 08:23:09;;;;;;;34.70;17.48;;;2.10;99.90;;;;;;5047901;28;20037;-69
2021/12/09 08:25:36;;;;;;;33.33;16.27;;;2.10;99.90;;;;;;5045727;28;20131;-69
2021/12/09 08:28:04;;;;;;;34.60;17.02;;;2.20;99.90;;;;;;5043285;28;20405;-69
2021/12/09 08:30:32;;;;;;;33.47;15.13;;;2.20;99.90;;;;;;5007221;28;20050;-69
2021/12/09 08:33:19;;;;;;;34.15;17.08;;;2.30;99.90;;;;;;5017431;28;20068;-69
2021/12/09 08:35:47;;;;;;;37.80;17.80;;;2.30;99.90;;;;;;5034251;28;20047;-69
2021/12/09 08:38:14;;;;;;;32.58;16.58;;;2.40;99.90;;;;;;5046422;28;20072;-69
2021/12/09 08:40:43;;;;;;;37.33;17.92;;;2.40;99.90;;;;;;5043561;28;20137;-70
2021/12/09 08:43:11;;;;;;;37.53;18.23;;;2.30;99.90;;;;;;5035031;28;20041;-69
2021/12/09 08:45:39;;;;;;;35.67;17.13;;;2.40;99.90;;;;;;5047828;28;20052;-69
2021/12/09 08:48:07;;;;;;;36.22;17.00;;;2.40;99.90;;;;;;5040685;28;20047;-69
2021/12/09 08:50:36;;;;;;;37.22;17.63;;;2.40;99.90;;;;;;5046279;28;20052;-69
2021/12/09 08:53:07;;;;;;;39.60;17.52;;;2.50;99.90;;;;;;5020749;28;20384;-69
2021/12/09 08:55:37;;;;;;;38.28;17.95;;;2.50;99.90;;;;;;5016095;28;20073;-69
2021/12/09 08:58:05;;;;;;;41.67;17.23;;;2.60;99.90;;;;;;5034540;28;20076;-69
2021/12/09 09:00:33;;;;;;;38.83;18.05;;;2.70;99.90;;;;;;5026104;28;20050;-69
2021/12/09 09:03:03;;;;;;;35.33;17.85;;;2.60;99.90;;;;;;5009434;28;20053;-70
2021/12/09 09:05:38;;;;;;;42.42;18.33;;;2.70;99.90;;;;;;5020538;28;20033;-69
2021/12/09 09:08:06;;;;;;;34.75;17.83;;;2.80;99.90;;;;;;5028369;28;20053;-70
2021/12/09 09:10:36;;;;;;;41.08;20.02;;;2.70;99.90;;;;;;5022538;28;20045;-69
2021/12/09 09:13:04;;;;;;;35.50;17.75;;;2.80;99.90;;;;;;5025821;28;20080;-69
2021/12/09 09:15:32;;;;;;;38.15;19.75;;;2.80;99.90;;;;;;5040491;28;20060;-69
2021/12/09 09:18:01;;;;;;;37.13;18.27;;;2.80;99.90;;;;;;5046775;28;20057;-69
2021/12/09 09:20:30;;;;;;;39.95;19.25;;;2.90;99.90;;;;;;5040791;28;20130;-69
2021/12/09 09:22:58;;;;;;;38.38;18.13;;;2.90;99.90;;;;;;5046826;28;20068;-69
2021/12/09 09:25:29;;;;;;;40.58;18.63;;;3.00;99.90;;;;;;5044423;28;20049;-70
2021/12/09 09:28:00;;;;;;;44.90;20.42;;;3.00;99.90;;;;;;5037924;28;20041;-69
2021/12/09 09:30:37;;;;;;;40.03;19.38;;;3.10;99.90;;;;;;5028141;28;20583;-69
2021/12/09 09:33:09;;;;;;;36.80;17.98;;;3.00;99.90;;;;;;5031768;28;20137;-69
2021/12/09 09:35:37;;;;;;;34.30;18.75;;;3.00;99.90;;;;;;5007486;28;20050;-70
2021/12/09 09:38:06;;;;;;;40.75;19.98;;;2.90;99.90;;;;;;5020143;28;20132;-69
2021/12/09 09:40:40;;;;;;;40.78;18.92;;;2.90;99.90;;;;;;5035457;28;20073;-69
2021/12/09 09:43:27;;;;;;;37.92;17.33;;;3.00;99.90;;;;;;5031626;28;20041;-69
2021/12/09 09:46:03;;;;;;;;;;;3.00;99.90;;;;;;5027527;28;20049;-69
2021/12/09 09:48:31;;;;;;;41.45;18.48;;;2.90;99.90;;;;;;5041020;28;19925;-67
2021/12/09 09:50:59;;;;;;;42.97;20.25;;;2.80;99.90;;;;;;5036849;28;20052;-70
2021/12/09 09:53:26;;;;;;;42.00;19.30;;;2.80;99.90;;;;;;5003012;28;20069;-69
2021/12/09 09:55:54;;;;;;;40.08;18.88;;;2.80;99.90;;;;;;5027671;28;20054;-69
2021/12/09 09:58:21;;;;;;;34.58;18.38;;;2.80;99.90;;;;;;5008265;28;20037;-69
2021/12/09 10:00:49;;;;;;;41.60;19.98;;;2.70;99.90;;;;;;5026316;28;20488;-69
2021/12/09 10:03:17;;;;;;;45.67;20.65;;;2.70;99.90;;;;;;5033164;28;20134;-69
2021/12/09 10:05:48;;;;;;;43.78;21.25;;;2.70;99.90;;;;;;5026239;28;20420;-69
2021/12/09 10:08:17;;;;;;;39.83;20.83;;;2.70;99.90;;;;;;5032066;28;20465;-69
2021/12/09 10:10:46;;;;;;;42.90;21.13;;;2.70;99.90;;;;;;5038774;28;20041;-69
2021/12/09 10:13:16;;;;;;;42.30;21.38;;;2.70;99.90;;;;;;5015302;28;20086;-69
2021/12/09 10:15:50;;;;;;;38.75;19.70;;;2.80;99.90;;;;;;5037135;28;20037;-69
2021/12/09 10:18:36;;;;;;;40.28;21.33;;;2.90;99.90;;;;;;5037017;28;20060;-69
2021/12/09 10:21:06;;;;;;;43.33;20.63;;;2.90;99.90;;;;;;5020234;28;20108;-69
2021/12/09 10:23:45;;;;;;;43.45;20.17;;;3.00;99.90;;;;;;5028854;28;20038;-69
2021/12/09 10:26:14;;;;;;;44.35;20.92;;;3.00;99.90;;;;;;5024358;28;20050;-69
2021/12/09 10:28:48;;;;;;;39.15;19.02;;;3.00;99.90;;;;;;5000039;28;20053;-69
2021/12/09 10:31:19;;;;;;;42.35;20.92;;;2.90;99.90;;;;;;5035049;28;20123;-69
2021/12/09 10:34:36;;;;;;;37.63;19.80;;;3.00;99.90;;;;;;5027359;28;20041;-69
2021/12/09 10:37:13;;;;;;;44.97;20.80;;;3.00;99.90;;;;;;5027118;28;20050;-69
2021/12/09 10:40:03;;;;;;;36.67;21.33;;;3.00;99.90;;;;;;5017924;28;20042;-69
2021/12/09 10:42:33;;;;;;;37.55;19.05;;;3.10;99.90;;;;;;5015495;28;20053;-69
2021/12/09 10:45:04;;;;;;;38.42;17.88;;;3.10;99.90;;;;;;5015918;28;20140;-69
2021/12/09 10:48:01;;;;;;;40.10;19.10;;;3.20;99.90;;;;;;5020431;28;20042;-69
2021/12/09 10:50:36;;;;;;;40.67;18.55;;;3.20;99.90;;;;;;5013272;28;20507;-69
2021/12/09 10:55:53;;;;;;;31.30;17.60;;;3.30;99.90;;;;;;5013127;28;20042;-69
2021/12/09 10:58:24;;;;;;;36.53;17.40;;;3.30;99.90;;;;;;5019992;28;20049;-69
2021/12/09 11:00:57;;;;;;;33.63;16.88;;;3.40;99.90;;;;;;4992679;28;20416;-69
2021/12/09 11:03:28;;;;;;;31.70;15.45;;;3.50;99.90;;;;;;5039581;28;20037;-69
2021/12/09 11:06:03;;;;;;;36.97;16.80;;;3.40;99.90;;;;;;5026393;28;20049;-69
2021/12/09 11:08:45;;;;;;;28.80;14.45;;;3.40;99.90;;;;;;5024914;28;20392;-69
2021/12/09 11:11:33;;;;;;;26.52;14.70;;;3.50;99.90;;;;;;5012474;28;20069;-69
2021/12/09 11:14:13;;;;;;;31.58;15.20;;;3.50;99.90;;;;;;5043369;28;20041;-69
2021/12/09 11:16:49;;;;;;;29.42;14.35;;;3.50;99.90;;;;;;5042137;28;20052;-69
2021/12/09 11:19:19;;;;;;;31.30;13.77;;;3.70;99.90;;;;;;5024576;28;20045;-69
2021/12/09 11:21:57;;;;;;;28.10;13.07;;;3.90;99.90;;;;;;5027823;28;20212;-69
2021/12/09 11:24:32;;;;;;;24.42;13.35;;;4.00;99.90;;;;;;5032296;28;20046;-69
2021/12/09 11:27:03;;;;;;;28.65;13.35;;;4.10;99.90;;;;;;5013932;28;20038;-69
2021/12/09 11:29:45;;;;;;;28.65;12.77;;;4.10;99.90;;;;;;5043751;28;20056;-69
2021/12/09 11:35:30;;;;;;;30.05;13.07;;;4.20;99.90;;;;;;5018152;28;20037;-69
2021/12/09 11:38:23;;;;;;;20.23;10.93;;;4.20;99.90;;;;;;5028326;28;20045;-69
2021/12/09 11:40:57;;;;;;;26.77;12.98;;;4.30;99.90;;;;;;5030392;28;20040;-69
2021/12/09 11:43:26;;;;;;;22.85;11.85;;;4.20;99.90;;;;;;5012707;28;20042;-69
2021/12/09 11:45:57;;;;;;;22.20;12.57;;;4.10;99.90;;;;;;5033656;28;20061;-69
2021/12/09 11:48:27;;;;;;;28.60;12.43;;;4.10;99.90;;;;;;5035265;28;20583;-69
2021/12/09 11:50:55;;;;;;;22.38;12.00;;;4.10;99.90;;;;;;5035152;28;20061;-70
2021/12/09 11:53:26;;;;;;;25.25;12.13;;;4.10;99.90;;;;;;5026136;28;20034;-69
2021/12/09 11:56:08;;;;;;;25.70;12.13;;;4.00;99.90;;;;;;5017705;28;20401;-69
2021/12/09 11:58:49;;;;;;;23.40;11.98;;;4.00;99.90;;;;;;5025564;28;20483;-69
2021/12/09 12:18:29;;;;;;;22.83;11.75;;;3.90;99.90;;;;;;5019225;28;20060;-68
2021/12/09 12:21:43;;;;;;;21.25;11.18;;;3.90;99.90;;;;;;5022945;28;20484;-69
2021/12/09 12:27:15;;;;;;;22.33;11.48;;;3.80;99.90;;;;;;5025340;28;20071;-69
2021/12/09 12:33:03;;;;;;;23.08;11.88;;;3.70;99.90;;;;;;5024840;28;20044;-69
2021/12/09 12:38:17;;;;;;;22.90;13.10;;;3.70;99.90;;;;;;5022926;28;20037;-69
2021/12/09 12:41:07;;;;;;;24.92;12.60;;;3.70;99.90;;;;;;5021433;28;20045;-69
2021/12/09 12:43:54;;;;;;;24.45;11.98;;;3.70;99.90;;;;;;5028219;28;20525;-69
2021/12/09 12:47:00;;;;;;;23.77;12.82;;;3.70;99.90;;;;;;5012594;28;20046;-69
2021/12/09 12:49:36;;;;;;;29.65;14.07;;;3.70;99.90;;;;;;4997793;28;20063;-69
2021/12/09 12:52:09;;;;;;;32.15;13.70;;;3.70;99.90;;;;;;5012268;28;20047;-69
2021/12/09 12:54:52;;;;;;;23.75;13.50;;;3.60;99.90;;;;;;5029222;28;20412;-69
2021/12/09 12:57:43;;;;;;;31.33;14.23;;;3.60;99.90;;;;;;5018412;28;20044;-69
2021/12/09 13:00:14;;;;;;;26.20;13.95;;;3.60;99.90;;;;;;5031748;28;20376;-69
2021/12/09 13:05:26;;;;;;;26.40;14.25;;;3.60;99.90;;;;;;5027744;28;20056;-70
2021/12/09 13:16:09;;;;;;;25.60;12.85;;;3.50;99.90;;;;;;5016632;28;20467;-69
2021/12/09 13:18:45;;;;;;;25.55;13.48;;;3.60;99.90;;;;;;5027223;28;20680;-68
2021/12/09 13:21:52;;;;;;;26.30;14.77;;;3.60;99.90;;;;;;5029395;28;20041;-67
2021/12/09 13:24:25;;;;;;;28.60;13.40;;;3.60;99.90;;;;;;5030526;28;20041;-70
2021/12/09 13:30:14;;;;;;;27.33;14.30;;;3.60;99.90;;;;;;5022890;28;20047;-69
2021/12/09 13:47:28;;;;;;;27.75;13.15;;;3.30;99.90;;;;;;5018372;28;20041;-69
2021/12/09 13:55:15;;;;;;;23.65;14.25;;;3.20;99.90;;;;;;5030404;28;20060;-69
2021/12/09 13:57:49;;;;;;;26.58;12.68;;;3.30;99.90;;;;;;5024892;28;20045;-69
2021/12/09 14:00:25;;;;;;;20.52;12.35;;;3.30;99.90;;;;;;5036195;28;20046;-69
2021/12/09 14:02:56;;;;;;;21.35;12.75;;;3.40;99.90;;;;;;5022127;28;20049;-68
2021/12/09 14:05:25;;;;;;;26.50;13.73;;;3.30;99.90;;;;;;5032227;28;20479;-68
2021/12/09 14:08:04;;;;;;;24.75;14.20;;;3.40;99.90;;;;;;5031530;28;20045;-69
2021/12/09 14:10:35;;;;;;;24.38;13.00;;;3.40;99.90;;;;;;5032159;28;20041;-69